createdAt,value
2022-10-19T00:00:30.952Z,9.30
2022-10-19T00:02:57.306Z,8.82
2022-10-19T00:05:23.605Z,9.55
2022-10-19T00:07:49.888Z,9.73
2022-10-19T00:10:16.191Z,10.00
2022-10-19T00:12:42.569Z,8.65
2022-10-19T00:15:09.118Z,8.82
2022-10-19T00:17:35.966Z,8.93
2022-10-19T00:20:02.392Z,8.85
2022-10-19T00:22:28.692Z,8.82
2022-10-19T00:24:56.339Z,7.75
2022-10-19T00:27:22.684Z,8.38
2022-10-19T00:29:49.107Z,9.00
2022-10-19T00:32:15.418Z,8.68
2022-10-19T00:34:41.840Z,9.32
2022-10-19T00:37:08.145Z,8.30
2022-10-19T00:39:34.459Z,9.25
2022-10-19T00:42:00.752Z,8.10
2022-10-19T00:44:30.089Z,7.82
2022-10-19T00:47:01.558Z,7.78
2022-10-19T00:49:32.471Z,7.80
2022-10-19T00:52:03.256Z,7.53
2022-10-19T00:54:31.219Z,7.88
2022-10-19T00:56:57.794Z,7.38
2022-10-19T00:59:25.146Z,6.57
2022-10-19T01:01:51.931Z,7.03
2022-10-19T01:04:19.880Z,6.90
2022-10-19T01:06:46.227Z,7.00
2022-10-19T01:09:12.602Z,6.38
2022-10-19T01:11:47.932Z,6.97
2022-10-19T01:14:33.304Z,6.60
2022-10-19T01:17:07.382Z,6.53
2022-10-19T01:19:36.734Z,6.40
2022-10-19T01:22:12.851Z,6.50
2022-10-19T01:24:42.236Z,6.32
2022-10-19T01:27:08.576Z,6.82
2022-10-19T01:29:34.893Z,5.53
2022-10-19T01:32:04.013Z,6.20
2022-10-19T01:34:36.760Z,6.80
2022-10-19T01:39:35.106Z,6.00
2022-10-19T01:42:04.555Z,6.40
2022-10-19T01:44:36.945Z,6.50
2022-10-19T01:47:05.992Z,5.60
2022-10-19T01:49:40.360Z,6.47
2022-10-19T01:52:08.212Z,6.03
2022-10-19T01:54:37.039Z,6.05
2022-10-19T01:57:05.890Z,6.40
2022-10-19T01:59:33.243Z,5.65
2022-10-19T02:02:00.332Z,6.18
2022-10-19T02:04:26.800Z,6.10
2022-10-19T02:06:54.059Z,7.47
2022-10-19T02:09:21.590Z,5.78
2022-10-19T02:11:51.295Z,6.40
2022-10-19T02:14:23.644Z,5.18
2022-10-19T02:16:52.714Z,6.00
2022-10-19T02:19:20.276Z,5.43
2022-10-19T02:21:46.828Z,6.22
2022-10-19T02:24:13.251Z,6.47
2022-10-19T02:26:39.770Z,5.65
2022-10-19T02:29:06.335Z,6.35
2022-10-19T02:31:32.683Z,6.55
2022-10-19T02:33:59.221Z,6.47
2022-10-19T02:36:25.644Z,5.68
2022-10-19T02:38:53.723Z,6.35
2022-10-19T02:41:26.005Z,6.57
2022-10-19T02:43:55.898Z,5.63
2022-10-19T02:46:32.396Z,5.80
2022-10-19T02:48:58.889Z,5.75
2022-10-19T02:51:35.811Z,5.60
2022-10-19T02:54:05.106Z,6.75
2022-10-19T02:56:32.223Z,5.90
2022-10-19T02:58:58.609Z,6.32
2022-10-19T03:01:25.037Z,5.43
2022-10-19T03:03:51.375Z,4.95
2022-10-19T03:06:17.728Z,5.80
2022-10-19T03:08:44.088Z,5.63
2022-10-19T03:11:10.809Z,5.20
2022-10-19T03:13:37.333Z,5.45
2022-10-19T03:16:07.599Z,5.40
2022-10-19T03:18:34.005Z,5.28
2022-10-19T03:21:07.405Z,5.60
2022-10-19T03:23:34.247Z,4.82
2022-10-19T03:26:00.777Z,5.22
2022-10-19T03:28:27.631Z,5.63
2022-10-19T03:30:54.004Z,5.43
2022-10-19T03:33:20.357Z,5.50
2022-10-19T03:35:46.675Z,5.70
2022-10-19T03:38:13.071Z,5.28
2022-10-19T03:40:39.711Z,5.43
2022-10-19T03:43:06.042Z,5.30
2022-10-19T03:45:34.910Z,6.30
2022-10-19T03:48:01.253Z,5.55
2022-10-19T03:50:27.620Z,5.72
2022-10-19T03:52:54.910Z,5.65
2022-10-19T03:55:21.226Z,6.18
2022-10-19T03:57:47.517Z,5.57
2022-10-19T04:00:14.037Z,6.30
2022-10-19T04:02:40.378Z,6.60
2022-10-19T04:05:07.047Z,5.38
2022-10-19T04:07:33.580Z,6.35
2022-10-19T04:09:59.962Z,5.63
2022-10-19T04:12:26.307Z,5.50
2022-10-19T04:14:57.338Z,5.68
2022-10-19T04:17:24.182Z,5.68
2022-10-19T04:19:50.482Z,5.28
2022-10-19T04:22:16.823Z,5.38
2022-10-19T04:24:43.196Z,5.05
2022-10-19T04:27:09.769Z,4.80
2022-10-19T04:29:36.121Z,5.07
2022-10-19T04:32:02.442Z,5.40
2022-10-19T04:34:28.751Z,5.05
2022-10-19T04:36:55.135Z,5.32
2022-10-19T04:39:21.507Z,5.72
2022-10-19T04:41:47.833Z,5.60
2022-10-19T04:44:14.218Z,5.10
2022-10-19T04:46:40.735Z,6.43
2022-10-19T04:49:07.118Z,5.25
2022-10-19T04:51:33.933Z,5.55
2022-10-19T04:54:00.313Z,5.10
2022-10-19T04:56:27.324Z,4.85
2022-10-19T04:58:57.503Z,5.35
2022-10-19T05:01:24.709Z,4.60
2022-10-19T05:03:58.474Z,4.75
2022-10-19T05:06:24.850Z,5.07
2022-10-19T05:08:51.323Z,4.97
2022-10-19T05:11:17.991Z,5.05
2022-10-19T05:13:44.571Z,5.03
2022-10-19T05:16:12.295Z,5.00
2022-10-19T05:18:38.766Z,5.03
2022-10-19T05:21:06.248Z,4.63
2022-10-19T05:26:08.282Z,4.88
2022-10-19T05:28:34.974Z,5.57
2022-10-19T05:31:12.490Z,4.60
2022-10-19T05:33:39.158Z,4.65
2022-10-19T05:36:17.617Z,4.65
2022-10-19T05:38:44.706Z,4.75
2022-10-19T05:41:11.199Z,5.53
2022-10-19T05:43:37.554Z,5.88
2022-10-19T05:46:08.015Z,5.35
2022-10-19T05:48:35.016Z,6.05
2022-10-19T05:51:02.090Z,5.53
2022-10-19T05:53:29.264Z,6.30
2022-10-19T05:55:55.976Z,6.32
2022-10-19T05:58:22.311Z,6.07
2022-10-19T06:00:55.764Z,5.75
2022-10-19T06:03:22.609Z,5.40
2022-10-19T06:05:49.658Z,5.47
2022-10-19T06:08:16.640Z,5.28
2022-10-19T06:10:43.160Z,5.88
2022-10-19T06:13:09.624Z,5.57
2022-10-19T06:15:36.442Z,6.65
2022-10-19T06:18:06.600Z,6.47
2022-10-19T06:20:40.202Z,5.97
2022-10-19T06:23:07.093Z,7.20
2022-10-19T06:25:34.302Z,5.93
2022-10-19T06:28:01.214Z,5.80
2022-10-19T06:30:28.065Z,6.03
2022-10-19T06:32:54.610Z,5.63
2022-10-19T06:35:20.972Z,5.63
2022-10-19T06:37:47.259Z,6.32
2022-10-19T06:40:13.678Z,5.63
2022-10-19T06:42:40.042Z,6.30
2022-10-19T06:45:07.156Z,6.47
2022-10-19T06:47:34.418Z,6.13
2022-10-19T06:50:01.394Z,6.20
2022-10-19T06:52:27.722Z,5.53
2022-10-19T06:54:54.008Z,6.28
2022-10-19T06:57:20.286Z,5.53
2022-10-19T06:59:48.094Z,6.00
2022-10-19T07:02:16.503Z,6.32
2022-10-19T07:04:43.107Z,5.57
2022-10-19T07:07:10.281Z,5.57
2022-10-19T07:09:36.622Z,5.70
2022-10-19T07:12:03.316Z,6.93
2022-10-19T07:14:29.669Z,6.68
2022-10-19T07:16:55.961Z,4.75
2022-10-19T07:19:22.400Z,5.57
2022-10-19T07:21:52.242Z,5.20
2022-10-19T07:24:19.145Z,5.25
2022-10-19T07:26:45.457Z,5.78
2022-10-19T07:29:11.804Z,5.78
2022-10-19T07:31:38.534Z,5.00
2022-10-19T07:34:04.963Z,5.70
2022-10-19T07:36:34.137Z,4.95
2022-10-19T07:39:06.236Z,5.50
2022-10-19T07:41:32.970Z,5.55
2022-10-19T07:43:59.600Z,5.00
2022-10-19T07:46:28.960Z,5.43
2022-10-19T07:48:55.838Z,6.05
2022-10-19T07:53:58.736Z,5.47
2022-10-19T07:56:26.205Z,5.47
2022-10-19T07:58:53.890Z,5.45
2022-10-19T08:01:21.466Z,5.00
2022-10-19T08:06:35.050Z,4.18
2022-10-19T08:09:01.488Z,4.40
2022-10-19T08:11:29.816Z,5.00
2022-10-19T08:13:58.542Z,4.22
2022-10-19T08:16:26.787Z,3.88
2022-10-19T08:18:58.024Z,4.32
2022-10-19T08:21:26.554Z,4.60
2022-10-19T08:23:52.975Z,3.72
2022-10-19T08:26:19.396Z,4.05
2022-10-19T08:28:45.854Z,5.85
2022-10-19T08:31:13.874Z,3.97
2022-10-19T08:33:40.544Z,4.13
2022-10-19T08:36:07.985Z,3.72
2022-10-19T08:38:35.977Z,3.85
2022-10-19T08:41:13.636Z,3.67
2022-10-19T08:43:44.455Z,4.07
2022-10-19T08:46:14.089Z,2.88
2022-10-19T08:48:42.929Z,3.80
2022-10-19T08:51:11.457Z,3.65
2022-10-19T08:53:37.707Z,3.45
2022-10-19T08:56:06.987Z,3.58
2022-10-19T08:58:51.744Z,3.10
2022-10-19T09:01:26.158Z,3.35
2022-10-19T09:03:56.740Z,3.75
2022-10-19T09:06:31.104Z,3.42
2022-10-19T09:08:59.013Z,3.33
2022-10-19T09:11:27.988Z,3.33
2022-10-19T09:14:06.384Z,3.53
2022-10-19T09:16:34.756Z,3.90
2022-10-19T09:19:01.243Z,3.78
2022-10-19T09:21:47.758Z,3.17
2022-10-19T09:24:32.986Z,3.88
2022-10-19T09:27:00.017Z,3.42
2022-10-19T09:29:46.146Z,3.72
2022-10-19T09:32:15.228Z,3.47
2022-10-19T09:34:44.133Z,4.13
2022-10-19T09:37:18.875Z,4.07
2022-10-19T09:39:53.970Z,2.47
2022-10-19T09:42:33.679Z,3.03
2022-10-19T09:45:01.407Z,2.60
2022-10-19T09:47:32.523Z,2.72
2022-10-19T09:50:07.323Z,2.50
2022-10-19T09:52:37.925Z,3.42
2022-10-19T09:55:13.291Z,3.20
2022-10-19T09:57:47.205Z,3.20
2022-10-19T10:00:23.817Z,2.42
2022-10-19T10:02:55.124Z,2.50
2022-10-19T10:05:30.304Z,2.45
2022-10-19T10:07:57.184Z,2.42
2022-10-19T10:10:29.768Z,4.35
2022-10-19T10:13:00.215Z,2.25
2022-10-19T10:15:27.863Z,2.80
2022-10-19T10:17:55.525Z,2.17
2022-10-19T10:20:27.797Z,2.10
2022-10-19T10:22:57.391Z,1.90
2022-10-19T10:25:25.695Z,2.10
2022-10-19T10:27:57.164Z,2.38
2022-10-19T10:30:23.694Z,1.98
2022-10-19T10:32:51.056Z,1.45
2022-10-19T10:35:19.825Z,1.50
2022-10-19T10:37:48.393Z,1.58
2022-10-19T10:40:34.292Z,1.83
2022-10-19T10:43:09.083Z,1.65
2022-10-19T10:45:40.975Z,1.90
2022-10-19T10:48:31.496Z,1.75
2022-10-19T10:51:00.648Z,1.45
2022-10-19T10:53:43.362Z,1.80
2022-10-19T10:56:25.554Z,1.80
2022-10-19T10:59:15.390Z,1.67
2022-10-19T11:01:45.373Z,1.40
2022-10-19T11:04:15.523Z,1.20
2022-10-19T11:07:01.828Z,1.20
2022-10-19T11:09:42.372Z,1.40
2022-10-19T11:12:13.489Z,1.45
2022-10-19T11:17:13.249Z,1.33
2022-10-19T11:19:44.400Z,2.35
2022-10-19T11:22:28.311Z,2.00
2022-10-19T11:25:14.488Z,1.40
2022-10-19T11:27:55.129Z,1.40
2022-10-19T11:30:22.571Z,1.88
2022-10-19T11:33:06.748Z,1.10
2022-10-19T11:35:49.576Z,1.55
2022-10-19T11:38:21.372Z,2.17
2022-10-19T11:41:20.052Z,1.50
2022-10-19T11:44:29.716Z,1.08
2022-10-19T11:46:59.298Z,1.00
2022-10-19T11:49:47.975Z,1.20
2022-10-19T11:52:25.786Z,1.85
2022-10-19T11:54:53.291Z,1.20
2022-10-19T11:57:26.041Z,1.60
2022-10-19T12:00:38.007Z,1.60
2022-10-19T12:03:28.012Z,1.63
2022-10-19T12:06:12.762Z,1.48
2022-10-19T12:08:48.278Z,1.48
2022-10-19T12:11:23.428Z,1.50
2022-10-19T12:13:58.999Z,1.33
2022-10-19T12:16:30.623Z,1.25
2022-10-19T12:19:00.316Z,1.52
2022-10-19T12:21:56.014Z,1.63
2022-10-19T12:24:26.274Z,1.40
2022-10-19T12:26:54.688Z,1.60
2022-10-19T12:29:28.711Z,1.73
2022-10-19T12:31:57.503Z,1.48
2022-10-19T12:34:26.591Z,1.85
2022-10-19T12:37:20.582Z,2.00
2022-10-19T12:39:56.240Z,1.92
2022-10-19T12:42:51.312Z,2.00
2022-10-19T12:45:21.282Z,1.90
2022-10-19T12:48:06.210Z,1.42
2022-10-19T12:50:47.817Z,1.63
2022-10-19T12:53:31.379Z,1.70
2022-10-19T12:56:09.765Z,1.73
2022-10-19T12:58:47.526Z,1.58
2022-10-19T13:01:25.510Z,1.73
2022-10-19T13:03:54.401Z,2.00
2022-10-19T13:06:23.574Z,1.83
2022-10-19T13:08:53.064Z,1.70
2022-10-19T13:11:19.812Z,2.00
2022-10-19T13:14:00.145Z,2.60
2022-10-19T13:16:29.366Z,2.05
2022-10-19T13:19:07.992Z,1.55
2022-10-19T13:21:50.992Z,1.85
2022-10-19T13:24:26.246Z,2.03
2022-10-19T13:27:04.740Z,1.95
2022-10-19T13:29:36.915Z,1.60
2022-10-19T13:32:22.161Z,2.20
2022-10-19T13:34:48.645Z,1.65
2022-10-19T13:37:16.857Z,1.95
2022-10-19T13:39:43.231Z,2.30
2022-10-19T13:42:23.737Z,1.67
2022-10-19T13:44:52.956Z,1.83
2022-10-19T13:47:29.707Z,2.33
2022-10-19T13:49:59.243Z,2.10
2022-10-19T13:52:25.557Z,1.92
2022-10-19T13:55:10.595Z,2.10
2022-10-19T13:57:57.018Z,1.90
2022-10-19T14:00:30.224Z,1.90
2022-10-19T14:03:11.746Z,2.17
2022-10-19T14:05:56.733Z,1.67
2022-10-19T14:08:41.850Z,1.67
2022-10-19T14:11:14.082Z,2.00
2022-10-19T14:13:40.409Z,1.50
2022-10-19T14:16:06.860Z,2.13
2022-10-19T14:18:34.374Z,1.83
2022-10-19T14:21:02.651Z,2.08
2022-10-19T14:23:33.213Z,1.83
2022-10-19T14:26:19.872Z,1.65
2022-10-19T14:28:51.316Z,1.73
2022-10-19T14:31:19.909Z,1.45
2022-10-19T14:33:47.688Z,1.23
2022-10-19T14:36:16.296Z,1.63
2022-10-19T14:38:45.735Z,1.73
2022-10-19T14:41:38.110Z,1.83
2022-10-19T14:44:39.969Z,1.80
2022-10-19T14:47:14.811Z,2.63
2022-10-19T14:49:41.410Z,2.30
2022-10-19T14:52:08.555Z,1.50
2022-10-19T14:54:37.138Z,1.50
2022-10-19T14:57:06.332Z,2.03
2022-10-19T14:59:44.885Z,1.95
2022-10-19T15:02:20.603Z,1.80
2022-10-19T15:04:47.456Z,1.88
2022-10-19T15:07:16.803Z,1.75
2022-10-19T15:09:48.720Z,2.30
2022-10-19T15:12:16.802Z,1.95
2022-10-19T15:14:43.485Z,1.60
2022-10-19T15:17:29.047Z,1.77
2022-10-19T15:19:56.704Z,1.55
2022-10-19T15:22:29.045Z,1.40
2022-10-19T15:24:55.738Z,1.33
2022-10-19T15:27:22.901Z,1.60
2022-10-19T15:29:56.073Z,2.25
2022-10-19T15:32:23.821Z,1.98
2022-10-19T15:34:50.261Z,1.50
2022-10-19T15:37:18.521Z,2.00
2022-10-19T15:39:45.847Z,1.92
2022-10-19T15:42:21.245Z,1.70
2022-10-19T15:44:47.565Z,2.33
2022-10-19T15:47:18.772Z,1.55
2022-10-19T15:49:45.651Z,1.67
2022-10-19T15:52:15.512Z,2.60
2022-10-19T15:54:42.797Z,1.88
2022-10-19T15:57:28.126Z,3.58
2022-10-19T15:59:55.703Z,1.90
2022-10-19T16:02:22.211Z,2.08
2022-10-19T16:04:48.489Z,1.73
2022-10-19T16:07:15.971Z,2.42
2022-10-19T16:09:42.336Z,2.85
2022-10-19T16:12:11.465Z,2.42
2022-10-19T16:14:37.840Z,2.10
2022-10-19T16:17:04.334Z,1.67
2022-10-19T16:19:30.617Z,2.20
2022-10-19T16:21:57.117Z,2.08
2022-10-19T16:24:23.521Z,2.47
2022-10-19T16:26:49.839Z,2.30
2022-10-19T16:29:16.204Z,3.33
2022-10-19T16:31:42.489Z,3.00
2022-10-19T16:34:08.783Z,2.78
2022-10-19T16:36:35.094Z,3.22
2022-10-19T16:39:01.412Z,3.33
2022-10-19T16:41:27.760Z,3.40
2022-10-19T16:43:54.733Z,3.70
2022-10-19T16:46:21.844Z,3.72
2022-10-19T16:48:48.646Z,3.65
2022-10-19T16:51:17.725Z,3.97
2022-10-19T16:53:44.012Z,3.88
2022-10-19T16:56:12.304Z,3.45
2022-10-19T16:58:39.375Z,3.22
2022-10-19T17:01:13.451Z,4.50
2022-10-19T17:03:39.836Z,4.18
2022-10-19T17:06:06.606Z,3.55
2022-10-19T17:08:37.033Z,3.72
2022-10-19T17:11:19.267Z,3.50
2022-10-19T17:13:46.940Z,4.03
2022-10-19T17:16:14.659Z,3.40
2022-10-19T17:18:42.908Z,4.30
2022-10-19T17:21:10.950Z,3.80
2022-10-19T17:23:37.547Z,4.15
2022-10-19T17:26:04.331Z,4.55
2022-10-19T17:28:31.129Z,4.80
2022-10-19T17:31:01.989Z,4.47
2022-10-19T17:33:28.367Z,4.28
2022-10-19T17:35:54.726Z,4.75
2022-10-19T17:38:21.036Z,5.47
2022-10-19T17:40:47.513Z,5.43
2022-10-19T17:43:13.779Z,5.55
2022-10-19T17:45:40.181Z,4.57
2022-10-19T17:48:08.235Z,4.15
2022-10-19T17:50:34.627Z,4.75
2022-10-19T17:53:01.046Z,4.30
2022-10-19T17:55:28.583Z,4.60
2022-10-19T17:57:55.278Z,4.43
2022-10-19T18:00:22.083Z,3.80
2022-10-19T18:02:48.902Z,4.75
2022-10-19T18:05:15.372Z,4.18
2022-10-19T18:07:43.211Z,4.53
2022-10-19T18:10:09.577Z,4.45
2022-10-19T18:12:35.918Z,4.63
2022-10-19T18:15:02.205Z,4.82
2022-10-19T18:17:28.557Z,4.25
2022-10-19T18:19:54.860Z,4.07
2022-10-19T18:22:21.823Z,4.57
2022-10-19T18:24:49.408Z,4.45
2022-10-19T18:27:16.598Z,5.70
2022-10-19T18:29:43.007Z,4.50
2022-10-19T18:32:09.391Z,4.82
2022-10-19T18:34:35.721Z,4.60
2022-10-19T18:37:02.076Z,4.47
2022-10-19T18:39:28.419Z,4.85
2022-10-19T18:41:55.100Z,4.72
2022-10-19T18:44:25.506Z,3.72
2022-10-19T18:49:20.830Z,4.88
2022-10-19T18:51:50.809Z,4.40
2022-10-19T18:54:20.843Z,4.18
2022-10-19T18:56:47.175Z,4.07
2022-10-19T18:59:13.572Z,4.03
2022-10-19T19:01:39.973Z,3.72
2022-10-19T19:04:08.623Z,4.78
2022-10-19T19:06:36.213Z,7.38
2022-10-19T19:09:04.573Z,4.45
2022-10-19T19:11:35.840Z,3.75
2022-10-19T19:14:09.995Z,4.03
2022-10-19T19:16:37.451Z,4.35
2022-10-19T19:19:04.143Z,5.05
2022-10-19T19:21:32.184Z,4.35
2022-10-19T19:24:00.038Z,4.72
2022-10-19T19:26:27.528Z,4.65
2022-10-19T19:28:53.962Z,4.40
2022-10-19T19:31:20.351Z,4.20
2022-10-19T19:33:47.423Z,3.75
2022-10-19T19:36:14.915Z,3.67
2022-10-19T19:38:41.405Z,3.25
2022-10-19T19:41:08.670Z,4.63
2022-10-19T19:43:36.970Z,4.60
2022-10-19T19:46:07.893Z,3.78
2022-10-19T19:48:35.824Z,3.97
2022-10-19T19:51:02.111Z,3.63
2022-10-19T19:53:28.386Z,4.22
2022-10-19T19:55:54.675Z,3.88
2022-10-19T19:58:20.980Z,3.50
2022-10-19T20:00:47.312Z,4.07
2022-10-19T20:03:13.684Z,3.80
2022-10-19T20:05:40.622Z,3.85
2022-10-19T20:08:07.374Z,3.60
2022-10-19T20:10:37.049Z,3.80
2022-10-19T20:15:30.595Z,3.42
2022-10-19T20:17:58.085Z,3.65
2022-10-19T20:20:24.375Z,4.50
2022-10-19T20:22:50.689Z,4.45
2022-10-19T20:25:18.238Z,3.20
2022-10-19T20:27:44.569Z,3.63
2022-10-19T20:30:11.212Z,3.72
2022-10-19T20:32:38.033Z,4.07
2022-10-19T20:35:04.803Z,4.10
2022-10-19T20:37:31.299Z,3.60
2022-10-19T20:39:57.649Z,3.65
2022-10-19T20:42:23.975Z,4.90
2022-10-19T20:44:50.546Z,3.42
2022-10-19T20:47:17.159Z,3.92
2022-10-19T20:49:43.483Z,3.55
2022-10-19T20:52:09.807Z,3.60
2022-10-19T20:54:36.851Z,3.58
2022-10-19T20:57:03.193Z,2.88
2022-10-19T20:59:30.331Z,4.72
2022-10-19T21:01:57.072Z,3.65
2022-10-19T21:04:25.008Z,3.92
2022-10-19T21:06:51.810Z,4.05
2022-10-19T21:09:20.244Z,3.97
2022-10-19T21:11:47.389Z,3.97
2022-10-19T21:14:15.064Z,3.85
2022-10-19T21:16:41.585Z,4.47
2022-10-19T21:19:15.404Z,4.07
2022-10-19T21:21:42.776Z,4.25
2022-10-19T21:24:13.687Z,3.85
2022-10-19T21:26:40.160Z,3.58
2022-10-19T21:29:09.414Z,3.88
2022-10-19T21:31:36.476Z,4.50
2022-10-19T21:34:06.691Z,4.28
2022-10-19T21:36:34.597Z,4.18
2022-10-19T21:39:00.970Z,4.45
2022-10-19T21:41:27.440Z,4.50
2022-10-19T21:43:54.503Z,4.78
2022-10-19T21:46:21.791Z,4.40
2022-10-19T21:48:48.450Z,4.60
2022-10-19T21:51:20.544Z,4.45
2022-10-19T21:53:46.956Z,5.00
2022-10-19T21:56:14.222Z,4.15
2022-10-19T21:58:44.302Z,4.32
2022-10-19T22:01:10.684Z,4.28
2022-10-19T22:03:37.041Z,4.28
2022-10-19T22:06:03.474Z,4.90
2022-10-19T22:08:29.834Z,4.60
2022-10-19T22:10:56.349Z,4.68
2022-10-19T22:13:22.663Z,4.30
2022-10-19T22:15:48.955Z,4.97
2022-10-19T22:18:15.259Z,5.07
2022-10-19T22:20:41.619Z,5.18
2022-10-19T22:23:08.006Z,5.20
2022-10-19T22:25:34.988Z,4.75
2022-10-19T22:28:01.327Z,5.18
2022-10-19T22:30:27.684Z,5.32
2022-10-19T22:32:54.139Z,5.28
2022-10-19T22:35:20.430Z,5.32
2022-10-19T22:37:46.763Z,5.15
2022-10-19T22:40:13.201Z,6.93
2022-10-19T22:42:39.511Z,4.95
2022-10-19T22:45:06.033Z,5.35
2022-10-19T22:47:32.330Z,5.10
2022-10-19T22:49:58.636Z,5.88
2022-10-19T22:52:24.935Z,5.68
2022-10-19T22:54:51.323Z,5.85
2022-10-19T22:57:17.634Z,5.43
2022-10-19T22:59:43.937Z,4.75
2022-10-19T23:02:10.314Z,5.85
2022-10-19T23:04:36.654Z,5.25
2022-10-19T23:07:03.124Z,5.75
2022-10-19T23:09:29.475Z,5.82
2022-10-19T23:11:55.839Z,5.25
2022-10-19T23:14:22.254Z,5.53
2022-10-19T23:16:48.607Z,6.03
2022-10-19T23:19:14.913Z,6.15
2022-10-19T23:21:41.211Z,5.95
2022-10-19T23:24:07.547Z,6.50
2022-10-19T23:26:33.920Z,7.22
2022-10-19T23:29:00.206Z,6.82
2022-10-19T23:31:26.736Z,6.50
2022-10-19T23:33:53.569Z,5.28
2022-10-19T23:36:21.262Z,5.85
2022-10-19T23:38:48.125Z,6.30
2022-10-19T23:41:14.831Z,6.70
2022-10-19T23:43:41.490Z,5.78
2022-10-19T23:46:07.917Z,6.03
2022-10-19T23:48:34.531Z,5.55
2022-10-19T23:51:02.195Z,6.35
2022-10-19T23:53:29.213Z,6.13
2022-10-19T23:56:02.599Z,6.85
2022-10-19T23:58:29.143Z,6.20
